createdAt,value
2019-05-16T00:00:10.353Z,85.40
2019-05-16T00:02:38.795Z,86.20
2019-05-16T00:05:08.452Z,86.90
2019-05-16T00:07:38.896Z,87.10
2019-05-16T00:10:08.385Z,87.30
2019-05-16T00:12:39.577Z,87.70
2019-05-16T00:15:09.101Z,88.00
2019-05-16T00:17:38.603Z,88.30
2019-05-16T00:20:09.489Z,89.30
2019-05-16T00:22:39.399Z,90.10
2019-05-16T00:25:09.537Z,90.60
2019-05-16T00:27:38.607Z,90.90
2019-05-16T00:30:08.981Z,91.00
2019-05-16T00:32:39.062Z,91.20
2019-05-16T00:35:09.183Z,91.60
2019-05-16T00:37:39.108Z,91.80
2019-05-16T00:40:08.841Z,92.00
2019-05-16T00:42:39.147Z,92.10
2019-05-16T00:45:09.269Z,92.20
2019-05-16T00:47:39.010Z,92.30
2019-05-16T00:50:08.822Z,92.50
2019-05-16T00:52:39.366Z,92.50
2019-05-16T00:55:11.799Z,92.50
2019-05-16T00:57:41.170Z,92.50
2019-05-16T01:00:12.573Z,92.50
2019-05-16T01:02:40.973Z,92.70
2019-05-16T01:05:09.552Z,92.90
2019-05-16T01:07:39.271Z,93.20
2019-05-16T01:10:09.335Z,93.20
2019-05-16T01:12:39.141Z,93.20
2019-05-16T01:15:08.738Z,93.30
2019-05-16T01:17:39.100Z,93.40
2019-05-16T01:20:08.518Z,93.40
2019-05-16T01:22:38.590Z,93.30
2019-05-16T01:25:09.534Z,93.50
2019-05-16T01:27:38.761Z,93.60
2019-05-16T01:30:09.040Z,93.50
2019-05-16T01:32:39.152Z,93.80
2019-05-16T01:35:08.664Z,94.20
2019-05-16T01:37:38.351Z,94.40
2019-05-16T01:40:08.357Z,94.50
2019-05-16T01:42:38.548Z,94.50
2019-05-16T01:45:09.425Z,94.50
2019-05-16T01:47:39.266Z,94.50
2019-05-16T01:50:08.856Z,94.50
2019-05-16T01:52:38.349Z,94.40
2019-05-16T01:55:08.475Z,94.30
2019-05-16T01:57:39.067Z,94.30
2019-05-16T02:00:08.746Z,94.40
2019-05-16T02:02:38.570Z,94.10
2019-05-16T02:05:08.666Z,93.80
2019-05-16T02:07:38.788Z,93.80
2019-05-16T02:10:11.051Z,93.90
2019-05-16T02:12:39.499Z,93.60
2019-05-16T02:15:09.353Z,93.20
2019-05-16T02:17:38.648Z,93.20
2019-05-16T02:20:08.646Z,93.40
2019-05-16T02:22:38.906Z,93.70
2019-05-16T02:25:09.828Z,93.90
2019-05-16T02:27:41.124Z,94.10
2019-05-16T02:30:12.373Z,94.30
2019-05-16T02:32:41.627Z,94.60
2019-05-16T02:35:11.788Z,95.00
2019-05-16T02:37:42.264Z,95.40
2019-05-16T02:40:12.390Z,95.40
2019-05-16T02:42:42.149Z,95.40
2019-05-16T02:45:11.487Z,95.20
2019-05-16T02:47:42.431Z,95.00
2019-05-16T02:50:12.206Z,94.90
2019-05-16T02:52:41.464Z,95.10
2019-05-16T02:55:11.902Z,95.10
2019-05-16T02:57:41.746Z,95.30
2019-05-16T03:00:12.346Z,95.50
2019-05-16T03:02:42.163Z,95.50
2019-05-16T03:05:12.239Z,95.70
2019-05-16T03:07:46.804Z,95.80
2019-05-16T03:10:23.288Z,95.90
2019-05-16T03:12:53.972Z,95.80
2019-05-16T03:15:22.380Z,95.70
2019-05-16T03:17:52.618Z,95.60
2019-05-16T03:20:22.637Z,95.50
2019-05-16T03:22:52.004Z,95.30
2019-05-16T03:25:22.225Z,95.30
2019-05-16T03:27:51.335Z,95.30
2019-05-16T03:30:23.777Z,95.30
2019-05-16T03:32:54.836Z,95.10
2019-05-16T03:35:24.535Z,95.00
2019-05-16T03:37:57.119Z,95.10
2019-05-16T03:40:26.486Z,95.30
2019-05-16T03:42:55.190Z,95.50
2019-05-16T03:45:23.614Z,95.50
2019-05-16T03:47:52.122Z,96.20
2019-05-16T03:50:21.790Z,96.00
2019-05-16T03:52:50.975Z,96.10
2019-05-16T03:55:21.444Z,96.70
2019-05-16T03:57:51.577Z,96.40
2019-05-16T04:00:22.849Z,96.60
2019-05-16T04:02:54.008Z,96.60
2019-05-16T04:05:22.433Z,96.70
2019-05-16T04:07:51.590Z,96.70
2019-05-16T04:10:21.700Z,96.60
2019-05-16T04:12:51.316Z,96.30
2019-05-16T04:15:21.498Z,96.00
2019-05-16T04:17:51.298Z,95.90
2019-05-16T04:20:21.517Z,95.80
2019-05-16T04:22:51.293Z,95.60
2019-05-16T04:25:21.667Z,95.50
2019-05-16T04:27:50.376Z,95.50
2019-05-16T04:30:21.831Z,95.60
2019-05-16T04:32:51.036Z,95.80
2019-05-16T04:35:21.451Z,96.00
2019-05-16T04:37:51.320Z,96.30
2019-05-16T04:40:21.955Z,96.30
2019-05-16T04:42:51.292Z,96.30
2019-05-16T04:45:21.071Z,96.40
2019-05-16T04:47:51.122Z,96.70
2019-05-16T04:50:21.238Z,96.80
2019-05-16T04:52:51.833Z,96.90
2019-05-16T04:55:21.071Z,96.70
2019-05-16T04:57:51.135Z,96.40
2019-05-16T05:00:21.136Z,96.20
2019-05-16T05:02:51.896Z,96.20
2019-05-16T05:05:21.467Z,96.30
2019-05-16T05:07:51.103Z,96.00
2019-05-16T05:10:20.687Z,95.90
2019-05-16T05:12:51.579Z,95.90
2019-05-16T05:15:21.513Z,96.10
2019-05-16T05:17:50.343Z,96.30
2019-05-16T05:20:20.986Z,96.60
2019-05-16T05:22:49.988Z,96.70
2019-05-16T05:25:20.408Z,96.70
2019-05-16T05:27:50.080Z,97.20
2019-05-16T05:30:19.788Z,96.70
2019-05-16T05:32:50.241Z,96.60
2019-05-16T05:35:20.578Z,96.70
2019-05-16T05:37:50.938Z,96.90
2019-05-16T05:40:20.111Z,96.50
2019-05-16T05:42:50.494Z,95.50
2019-05-16T05:45:20.110Z,95.00
2019-05-16T05:47:50.499Z,94.00
2019-05-16T05:50:20.185Z,93.60
2019-05-16T05:52:51.185Z,93.30
2019-05-16T05:55:20.131Z,93.40
2019-05-16T05:57:50.649Z,93.30
2019-05-16T06:00:21.018Z,93.20
2019-05-16T06:02:50.810Z,93.10
2019-05-16T06:05:20.228Z,93.00
2019-05-16T06:07:51.012Z,93.20
2019-05-16T06:10:19.928Z,93.30
2019-05-16T06:12:50.028Z,93.60
2019-05-16T06:15:20.355Z,93.40
2019-05-16T06:17:50.918Z,92.70
2019-05-16T06:20:20.347Z,92.10
2019-05-16T06:22:50.919Z,92.20
2019-05-16T06:25:22.699Z,91.70
2019-05-16T06:27:51.196Z,91.60
2019-05-16T06:30:21.389Z,91.20
2019-05-16T06:32:50.232Z,90.90
2019-05-16T06:35:20.259Z,90.90
2019-05-16T06:37:50.055Z,91.20
2019-05-16T06:40:20.258Z,90.90
2019-05-16T06:42:50.971Z,90.90
2019-05-16T06:45:20.571Z,90.60
2019-05-16T06:47:50.346Z,89.90
2019-05-16T06:50:20.801Z,88.60
2019-05-16T06:52:50.208Z,88.90
2019-05-16T06:55:20.534Z,87.70
2019-05-16T06:57:50.339Z,87.10
2019-05-16T07:00:20.958Z,87.20
2019-05-16T07:02:50.154Z,88.30
2019-05-16T07:05:20.796Z,89.40
2019-05-16T07:07:50.869Z,86.90
2019-05-16T07:10:20.337Z,86.20
2019-05-16T07:12:50.354Z,85.60
2019-05-16T07:15:20.636Z,84.50
2019-05-16T07:17:50.678Z,83.90
2019-05-16T07:20:20.988Z,84.40
2019-05-16T07:22:50.405Z,84.10
2019-05-16T07:25:20.801Z,82.90
2019-05-16T07:27:51.103Z,81.90
2019-05-16T07:30:19.998Z,82.00
2019-05-16T07:32:50.005Z,81.10
2019-05-16T07:35:20.494Z,81.30
2019-05-16T07:37:49.968Z,79.70
2019-05-16T07:40:23.745Z,79.50
2019-05-16T07:42:50.974Z,78.00
2019-05-16T07:45:20.428Z,79.00
2019-05-16T07:47:50.888Z,79.00
2019-05-16T07:50:20.159Z,77.10
2019-05-16T07:52:51.190Z,76.10
2019-05-16T07:55:20.799Z,74.60
2019-05-16T07:57:50.654Z,74.10
2019-05-16T08:00:21.604Z,72.80
2019-05-16T08:02:50.606Z,72.10
2019-05-16T08:05:21.115Z,71.80
2019-05-16T08:07:51.141Z,71.70
2019-05-16T08:10:37.095Z,70.60
2019-05-16T08:12:51.274Z,68.80
2019-05-16T08:15:21.416Z,67.60
2019-05-16T08:20:21.381Z,67.20
2019-05-16T08:22:50.876Z,65.10
2019-05-16T08:25:20.500Z,64.50
2019-05-16T08:27:51.907Z,65.50
2019-05-16T08:30:21.048Z,65.50
2019-05-16T08:32:52.871Z,64.40
2019-05-16T08:35:21.071Z,63.40
2019-05-16T08:45:22.016Z,62.80
2019-05-16T08:47:52.631Z,63.40
2019-05-16T08:50:05.380Z,63.50
2019-05-16T08:50:05.527Z,63.10
2019-05-16T08:50:05.719Z,68.60
2019-05-16T08:50:21.888Z,63.70
2019-05-16T08:52:52.877Z,64.80
2019-05-16T08:55:21.805Z,63.20
2019-05-16T08:57:52.922Z,62.90
2019-05-16T09:00:21.894Z,63.70
2019-05-16T09:02:52.530Z,64.20
2019-05-16T09:05:22.732Z,62.00
2019-05-16T09:07:59.846Z,61.70
2019-05-16T09:10:29.681Z,63.10
2019-05-16T09:12:51.862Z,61.10
2019-05-16T09:15:21.030Z,61.40
2019-05-16T09:17:49.569Z,61.40
2019-05-16T09:20:18.331Z,61.30
2019-05-16T09:22:48.079Z,58.90
2019-05-16T09:25:18.528Z,58.90
2019-05-16T09:27:47.589Z,58.90
2019-05-16T09:30:17.547Z,59.10
2019-05-16T09:32:48.013Z,60.20
2019-05-16T09:35:17.298Z,58.30
2019-05-16T09:37:47.311Z,58.20
2019-05-16T09:40:18.065Z,58.00
2019-05-16T09:42:47.483Z,58.10
2019-05-16T09:45:17.227Z,58.70
2019-05-16T09:47:48.446Z,57.80
2019-05-16T09:50:17.453Z,56.60
2019-05-16T09:52:47.260Z,56.50
2019-05-16T09:55:17.833Z,56.50
2019-05-16T09:57:46.981Z,56.00
2019-05-16T10:00:26.901Z,57.30
2019-05-16T10:02:54.745Z,57.70
2019-05-16T10:05:26.402Z,56.70
2019-05-16T10:07:54.013Z,56.80
2019-05-16T10:10:22.766Z,56.40
2019-05-16T10:12:51.250Z,57.90
2019-05-16T10:15:20.225Z,57.60
2019-05-16T10:17:48.705Z,56.80
2019-05-16T10:20:17.504Z,56.50
2019-05-16T10:22:50.566Z,56.60
2019-05-16T10:25:19.557Z,57.40
2019-05-16T10:27:48.398Z,56.40
2019-05-16T10:30:19.963Z,57.10
2019-05-16T10:32:48.465Z,56.80
2019-05-16T10:35:17.263Z,57.00
2019-05-16T10:37:47.057Z,56.70
2019-05-16T10:40:18.190Z,58.10
2019-05-16T10:42:47.197Z,57.30
2019-05-16T10:45:16.661Z,56.40
2019-05-16T10:47:47.849Z,56.40
2019-05-16T10:50:16.615Z,58.70
2019-05-16T10:52:47.514Z,55.60
2019-05-16T10:55:17.700Z,54.80
2019-05-16T10:57:47.485Z,55.80
2019-05-16T11:00:39.639Z,54.70
2019-05-16T11:02:47.765Z,55.70
2019-05-16T11:05:27.050Z,56.50
2019-05-16T11:07:48.631Z,55.10
2019-05-16T11:10:17.037Z,56.40
2019-05-16T11:12:50.971Z,55.20
2019-05-16T11:15:17.218Z,54.00
2019-05-16T11:17:46.044Z,55.20
2019-05-16T11:20:19.664Z,55.00
2019-05-16T11:22:47.730Z,56.10
2019-05-16T11:25:25.075Z,55.90
2019-05-16T11:27:46.976Z,55.30
2019-05-16T11:30:18.246Z,56.80
2019-05-16T11:32:48.171Z,55.80
2019-05-16T11:35:17.370Z,56.30
2019-05-16T11:37:47.272Z,56.50
2019-05-16T11:40:17.743Z,55.30
2019-05-16T11:42:48.713Z,53.60
2019-05-16T11:45:16.912Z,53.20
2019-05-16T11:47:47.104Z,54.00
2019-05-16T11:50:17.578Z,53.70
2019-05-16T11:52:47.659Z,53.20
2019-05-16T11:55:16.589Z,53.20
2019-05-16T11:57:47.365Z,52.70
2019-05-16T12:00:17.812Z,54.30
2019-05-16T12:02:47.824Z,54.10
2019-05-16T12:05:17.213Z,56.10
2019-05-16T12:07:48.417Z,55.20
2019-05-16T12:10:17.266Z,54.80
2019-05-16T12:12:45.715Z,54.30
2019-05-16T12:15:17.515Z,51.90
2019-05-16T12:17:59.151Z,53.80
2019-05-16T12:20:16.646Z,52.50
2019-05-16T12:22:45.287Z,55.70
2019-05-16T12:25:16.557Z,53.30
2019-05-16T12:27:44.516Z,54.50
2019-05-16T12:30:14.136Z,54.00
2019-05-16T12:32:42.685Z,53.70
2019-05-16T12:35:11.544Z,55.90
2019-05-16T12:37:39.985Z,54.80
2019-05-16T12:40:08.947Z,55.00
2019-05-16T12:42:37.402Z,55.70
2019-05-16T12:45:09.062Z,55.50
2019-05-16T12:47:37.851Z,57.70
2019-05-16T12:50:11.588Z,55.50
2019-05-16T12:52:40.373Z,54.30
2019-05-16T12:55:09.357Z,55.20
2019-05-16T12:57:38.506Z,54.60
2019-05-16T13:00:15.127Z,53.20
2019-05-16T13:02:39.143Z,54.40
2019-05-16T13:05:07.913Z,52.70
2019-05-16T13:07:37.677Z,52.10
2019-05-16T13:10:07.110Z,51.20
2019-05-16T13:12:37.750Z,51.50
2019-05-16T13:15:07.157Z,51.40
2019-05-16T13:17:37.219Z,50.60
2019-05-16T13:20:07.959Z,50.80
2019-05-16T13:22:38.536Z,50.10
2019-05-16T13:25:08.246Z,51.10
2019-05-16T13:27:37.531Z,50.70
2019-05-16T13:30:10.426Z,50.20
2019-05-16T13:32:38.986Z,50.20
2019-05-16T13:35:07.999Z,50.60
2019-05-16T13:37:36.520Z,50.90
2019-05-16T13:40:08.124Z,49.90
2019-05-16T13:42:37.153Z,50.90
2019-05-16T13:45:09.280Z,50.80
2019-05-16T13:47:37.976Z,51.70
2019-05-16T13:50:12.210Z,52.30
2019-05-16T13:52:38.528Z,50.90
2019-05-16T13:55:08.925Z,51.20
2019-05-16T13:57:37.725Z,50.80
2019-05-16T14:00:08.775Z,51.00
2019-05-16T14:02:38.045Z,51.50
2019-05-16T14:05:07.892Z,50.40
2019-05-16T14:07:37.422Z,51.80
2019-05-16T14:10:09.646Z,51.90
2019-05-16T14:12:38.195Z,50.40
2019-05-16T14:15:09.489Z,51.40
2019-05-16T14:17:38.158Z,49.80
2019-05-16T14:20:14.580Z,49.90
2019-05-16T14:22:40.399Z,50.00
2019-05-16T14:25:09.656Z,51.00
2019-05-16T14:27:38.520Z,50.60
2019-05-16T14:30:11.173Z,50.90
2019-05-16T14:32:42.943Z,51.20
2019-05-16T14:35:10.368Z,51.00
2019-05-16T14:37:38.789Z,51.50
2019-05-16T14:40:08.509Z,51.60
2019-05-16T14:42:38.590Z,50.20
2019-05-16T14:45:12.799Z,49.70
2019-05-16T14:47:39.974Z,52.20
2019-05-16T14:50:12.959Z,50.50
2019-05-16T14:52:38.937Z,52.80
2019-05-16T14:55:07.556Z,49.40
2019-05-16T14:57:36.857Z,49.80
2019-05-16T15:00:08.026Z,48.90
2019-05-16T15:02:38.175Z,48.80
2019-05-16T15:05:08.064Z,48.70
2019-05-16T15:07:37.620Z,47.90
2019-05-16T15:10:09.572Z,48.80
2019-05-16T15:12:38.017Z,48.60
2019-05-16T15:15:19.371Z,47.60
2019-05-16T15:17:38.703Z,48.10
2019-05-16T15:20:11.409Z,46.30
2019-05-16T15:22:39.920Z,45.10
2019-05-16T15:25:08.566Z,45.80
2019-05-16T15:27:37.541Z,45.50
2019-05-16T15:30:08.404Z,46.10
2019-05-16T15:32:38.534Z,47.70
2019-05-16T15:35:07.720Z,47.00
2019-05-16T15:37:37.203Z,46.10
2019-05-16T15:40:09.612Z,46.10
2019-05-16T15:42:38.063Z,46.60
2019-05-16T15:45:08.598Z,48.00
2019-05-16T15:47:37.833Z,47.60
2019-05-16T15:50:11.284Z,47.30
2019-05-16T15:52:39.769Z,48.30
2019-05-16T15:55:10.073Z,48.00
2019-05-16T15:57:38.792Z,47.40
2019-05-16T16:00:10.453Z,46.00
2019-05-16T16:02:39.358Z,46.70
2019-05-16T16:05:09.322Z,47.40
2019-05-16T16:07:38.163Z,49.10
2019-05-16T16:10:07.889Z,48.90
2019-05-16T16:12:37.671Z,50.00
2019-05-16T16:15:07.958Z,49.30
2019-05-16T16:17:38.005Z,49.00
2019-05-16T16:20:10.478Z,49.90
2019-05-16T16:22:38.207Z,50.40
2019-05-16T16:25:07.328Z,50.50
2019-05-16T16:27:36.024Z,51.20
2019-05-16T16:30:07.070Z,53.10
2019-05-16T16:32:37.923Z,52.50
2019-05-16T16:35:08.001Z,51.90
2019-05-16T16:37:37.710Z,51.90
2019-05-16T16:40:10.836Z,52.40
2019-05-16T16:42:37.494Z,52.80
2019-05-16T16:45:09.672Z,53.30
2019-05-16T16:47:38.196Z,53.60
2019-05-16T16:50:08.105Z,53.70
2019-05-16T16:52:37.776Z,53.60
2019-05-16T16:55:10.291Z,54.00
2019-05-16T16:57:38.802Z,52.80
2019-05-16T17:00:09.223Z,53.90
2019-05-16T17:02:37.824Z,53.20
2019-05-16T17:05:11.898Z,52.70
2019-05-16T17:07:37.669Z,53.80
2019-05-16T17:10:08.133Z,52.80
2019-05-16T17:12:41.663Z,53.10
2019-05-16T17:15:08.756Z,53.80
2019-05-16T17:17:37.958Z,55.00
2019-05-16T17:20:07.957Z,55.00
2019-05-16T17:22:37.643Z,55.00
2019-05-16T17:25:08.360Z,55.60
2019-05-16T17:27:37.557Z,54.70
2019-05-16T17:30:16.907Z,54.80
2019-05-16T17:32:45.150Z,55.10
2019-05-16T17:35:18.550Z,56.50
2019-05-16T17:37:46.826Z,55.70
2019-05-16T17:40:17.553Z,55.70
2019-05-16T17:42:47.682Z,55.00
2019-05-16T17:45:18.105Z,55.10
2019-05-16T17:47:47.015Z,55.40
2019-05-16T17:50:17.226Z,55.40
2019-05-16T17:52:47.701Z,54.60
2019-05-16T17:55:18.449Z,55.80
2019-05-16T17:57:47.238Z,57.20
2019-05-16T18:00:25.328Z,57.10
2019-05-16T18:02:47.116Z,57.40
2019-05-16T18:05:17.082Z,58.20
2019-05-16T18:07:47.439Z,57.90
2019-05-16T18:10:18.138Z,57.40
2019-05-16T18:12:48.080Z,57.90
2019-05-16T18:15:22.928Z,58.30
2019-05-16T18:17:51.453Z,58.00
2019-05-16T18:20:22.293Z,58.00
2019-05-16T18:22:50.552Z,58.80
2019-05-16T18:25:19.205Z,61.30
2019-05-16T18:27:47.697Z,60.50
2019-05-16T18:30:16.924Z,60.70
2019-05-16T18:32:45.339Z,61.30
2019-05-16T18:35:16.545Z,63.90
2019-05-16T18:37:46.330Z,65.10
2019-05-16T18:40:16.614Z,66.80
2019-05-16T18:42:47.599Z,68.90
2019-05-16T18:45:16.539Z,71.70
2019-05-16T18:47:47.048Z,72.70
2019-05-16T18:50:18.005Z,73.50
2019-05-16T18:52:47.221Z,73.50
2019-05-16T18:55:17.358Z,73.60
2019-05-16T18:57:47.212Z,73.80
2019-05-16T19:00:18.023Z,74.00
2019-05-16T19:02:47.838Z,74.10
2019-05-16T19:05:17.365Z,73.90
2019-05-16T19:07:47.556Z,74.90
2019-05-16T19:10:17.638Z,75.90
2019-05-16T19:12:47.821Z,75.20
2019-05-16T19:15:17.801Z,75.60
2019-05-16T19:17:48.172Z,76.00
2019-05-16T19:20:17.392Z,76.10
2019-05-16T19:22:45.947Z,76.00
2019-05-16T19:25:15.226Z,76.70
2019-05-16T19:27:46.326Z,77.70
2019-05-16T19:30:16.548Z,78.00
2019-05-16T19:32:46.902Z,80.50
2019-05-16T19:35:16.444Z,82.20
2019-05-16T19:37:47.031Z,81.50
2019-05-16T19:40:17.161Z,81.90
2019-05-16T19:42:47.170Z,81.20
2019-05-16T19:45:17.065Z,80.00
2019-05-16T19:47:46.973Z,79.70
2019-05-16T19:50:16.236Z,80.50
2019-05-16T19:52:47.013Z,80.80
2019-05-16T19:55:15.085Z,81.30
2019-05-16T19:57:43.487Z,81.80
2019-05-16T20:00:12.672Z,81.20
2019-05-16T20:02:41.103Z,82.00
2019-05-16T20:05:10.106Z,80.50
2019-05-16T20:07:38.630Z,81.20
2019-05-16T20:10:09.489Z,80.60
2019-05-16T20:12:37.870Z,80.40
2019-05-16T20:15:11.388Z,81.20
2019-05-16T20:17:51.021Z,80.10
2019-05-16T20:20:09.980Z,78.80
2019-05-16T20:22:38.432Z,77.10
2019-05-16T20:25:07.398Z,75.50
2019-05-16T20:27:36.808Z,75.30
2019-05-16T20:30:07.768Z,75.80
2019-05-16T20:32:37.190Z,74.80
2019-05-16T20:35:08.983Z,74.70
2019-05-16T20:37:37.238Z,74.50
2019-05-16T20:40:10.846Z,75.10
2019-05-16T20:42:38.876Z,75.60
2019-05-16T20:45:08.844Z,75.90
2019-05-16T20:47:37.285Z,76.50
2019-05-16T20:50:08.040Z,77.30
2019-05-16T20:52:37.770Z,78.20
2019-05-16T20:55:07.685Z,77.90
2019-05-16T20:57:37.613Z,77.70
2019-05-16T21:00:07.865Z,77.90
2019-05-16T21:02:37.840Z,77.40
2019-05-16T21:05:07.482Z,79.30
2019-05-16T21:07:37.544Z,77.30
2019-05-16T21:10:08.168Z,77.50
2019-05-16T21:12:40.172Z,78.40
2019-05-16T21:15:07.943Z,78.10
2019-05-16T21:17:36.448Z,78.50
2019-05-16T21:20:07.417Z,78.90
2019-05-16T21:22:37.062Z,79.20
2019-05-16T21:25:06.331Z,80.60
2019-05-16T21:27:37.558Z,79.80
2019-05-16T21:30:07.826Z,79.80
2019-05-16T21:32:36.782Z,80.60
2019-05-16T21:35:07.278Z,80.70
2019-05-16T21:37:37.424Z,80.30
2019-05-16T21:40:09.294Z,80.50
2019-05-16T21:42:37.788Z,80.40
2019-05-16T21:45:09.524Z,81.00
2019-05-16T21:47:37.958Z,81.60
2019-05-16T21:50:08.339Z,82.50
2019-05-16T21:52:36.866Z,82.20
2019-05-16T21:55:09.397Z,82.50
2019-05-16T21:57:38.036Z,82.80
2019-05-16T22:00:16.754Z,83.00
2019-05-16T22:02:46.699Z,83.20
2019-05-16T22:05:17.135Z,82.70
2019-05-16T22:07:47.405Z,83.00
2019-05-16T22:10:16.366Z,83.40
2019-05-16T22:12:47.470Z,83.60
2019-05-16T22:15:17.108Z,84.30
2019-05-16T22:17:47.177Z,84.90
2019-05-16T22:20:16.564Z,84.80
2019-05-16T22:22:46.960Z,85.30
2019-05-16T22:25:16.754Z,85.50
2019-05-16T22:27:48.326Z,85.70
2019-05-16T22:30:17.404Z,86.10
2019-05-16T22:32:47.175Z,86.80
2019-05-16T22:35:17.708Z,87.20
2019-05-16T22:37:55.194Z,87.70
2019-05-16T22:40:18.128Z,87.70
2019-05-16T22:42:46.961Z,88.00
2019-05-16T22:45:17.757Z,88.60
2019-05-16T22:47:46.754Z,89.10
2019-05-16T22:50:17.599Z,89.70
2019-05-16T22:52:46.494Z,90.10
2019-05-16T22:55:18.898Z,90.30
2019-05-16T22:57:49.307Z,90.50
2019-05-16T23:00:22.709Z,90.70
2019-05-16T23:02:51.281Z,90.70
2019-05-16T23:05:19.725Z,90.70
2019-05-16T23:08:01.798Z,90.80
2019-05-16T23:10:18.397Z,91.00
2019-05-16T23:12:46.837Z,91.00
2019-05-16T23:15:17.095Z,91.20
2019-05-16T23:17:46.555Z,91.40
2019-05-16T23:20:17.068Z,91.40
2019-05-16T23:22:46.983Z,91.60
2019-05-16T23:25:17.086Z,91.60
2019-05-16T23:27:47.405Z,91.80
2019-05-16T23:30:16.640Z,91.90
2019-05-16T23:32:46.990Z,92.00
2019-05-16T23:35:15.388Z,92.10
2019-05-16T23:37:46.224Z,92.10
2019-05-16T23:40:14.585Z,92.20
2019-05-16T23:42:43.121Z,92.50
2019-05-16T23:45:12.191Z,92.60
2019-05-16T23:47:40.712Z,92.50
2019-05-16T23:50:09.909Z,92.60
2019-05-16T23:52:38.321Z,92.70
2019-05-16T23:55:08.399Z,92.90
2019-05-16T23:57:37.547Z,93.00
